Villa Grove, CO

3:09 AM MDT on August 29, 2016 (GMT -0600)
Monarch Pass | | Change Station

Elev 12031 ft 38.48 °N, 106.32 °W | Updated 16 minutes ago

Light Rain
Light Rain
36 °F
Feels Like 23 °F
N
25
Wind Variable Wind from ENE
Gusts 32 mph

Today
High -- | Low -- °F
--% Chance of Precip.
Yesterday
High -- | Low -- °F
Precip. -- in
Pressure 30.73 in
Visibility 0.2 miles
Clouds Overcast 100 ft
Windchill 23 °F
Dew Point 34 °F
Humidity 93%
Rainfall 0.00 in
Snow Depth Not available.
6:32 AM 7:38 PM
Waning Crescent, 10% visible
METAR KMYP 290853Z AUTO 06022G28KT M1/4SM -RA OVC001 02/01 A3073 RMK AO2
Pressure 30.73 in
Visibility 0.2 miles
Clouds Overcast 100 ft
Windchill 23 °F
Dew Point 34 °F
Humidity 93%
Rainfall 0.00 in
Snow Depth Not available.
6:32 AM 7:38 PM
Waning Crescent, 10% visible
METAR KMYP 290853Z AUTO 06022G28KT M1/4SM -RA OVC001 02/01 A3073 RMK AO2

10-Day Weather Forecast

Almanac

Astronomy

Aug. 29, 2016 Rise Set
Actual Time
Civil Twilight
Nautical Twilight
Astronomical Twilight
Moon
Length of Visible Light
Length of Day
Tomorrow will be .
, % of the Moon is Illuminated

Today's Extremes

State Highs State Lows

Community

WunderPhotos

Upload Photos

1,935,798 photos uploaded!

WunderBlog® & News

Nearby

Air Quality

  Air Quality AQ Index Pollutant
Not available.

Snow Depth

Station Depth Elevation

Earthquake Activity

City Distance Mag. Time & Date
Minimum magnitude displayed is 2.5.

Coastal Water Temperatures

Place Temperature

Stations

Nearby Weather Stations

Station Location Temp. Windchill Dew Point Humidity Wind Precip. Elev Updated Type
                   

Watches & Warnings

There are currently no watches in effect.